Time;durP1;ratioP1;P1;durP2;ratioP2;P2;SDS_P1;SDS_P2;PMS_P1;PMS_P2;Temp;Humidity;BMP_temperature;BMP_pressure;BME280_temperature;BME280_humidity;BME280_pressure;Samples;Min_cycle;Max_cycle;Signal;HPM_P1;HPM_P2
2021/11/30 00:00:04;;;;;;;9.27;6.45;;;;;;;2.81;81.22;91776.78;5096932;28;20031;-43
2021/11/30 00:02:30;;;;;;;9.57;6.97;;;;;;;2.95;80.60;91782.81;5097302;28;20023;-47
2021/11/30 00:04:56;;;;;;;11.25;6.55;;;;;;;2.77;81.82;91779.09;5097690;28;20049;-42
2021/11/30 00:07:21;;;;;;;23.25;14.70;;;;;;;2.66;81.40;91774.00;5099253;28;20099;-43
2021/11/30 00:12:16;;;;;;;14.52;7.60;;;;;;;2.78;81.65;91777.84;5097257;28;20023;-46
2021/11/30 00:14:43;;;;;;;10.23;7.00;;;;;;;2.80;82.19;91783.47;5098897;28;20533;-43
2021/11/30 00:17:10;;;;;;;10.70;7.35;;;;;;;2.88;82.16;91786.25;5098967;28;20046;-44
2021/11/30 00:19:35;;;;;;;11.05;7.63;;;;;;;2.97;82.43;91777.53;5097010;28;20028;-45
2021/11/30 00:22:03;;;;;;;11.50;7.80;;;;;;;3.05;82.51;91779.03;5096544;28;20016;-43
2021/11/30 00:24:30;;;;;;;10.75;7.72;;;;;;;3.15;81.20;91781.22;5096582;28;20068;-44
2021/11/30 00:26:56;;;;;;;11.27;7.65;;;;;;;3.00;81.43;91785.38;5097963;28;20031;-43
2021/11/30 00:29:22;;;;;;;13.15;9.00;;;;;;;2.94;82.16;91782.09;5099743;28;20085;-42
2021/11/30 00:31:48;;;;;;;13.00;7.82;;;;;;;3.11;81.35;91787.06;5101007;28;20492;-45
2021/11/30 00:34:13;;;;;;;17.50;10.27;;;;;;;3.17;81.65;91784.88;5101238;28;20439;-43
2021/11/30 00:36:39;;;;;;;11.48;7.72;;;;;;;3.25;80.77;91784.91;5101811;28;20055;-42
2021/11/30 00:39:04;;;;;;;13.98;8.20;;;;;;;3.27;81.25;91785.81;5100448;28;20527;-43
2021/11/30 00:41:30;;;;;;;12.73;8.68;;;;;;;3.33;79.43;91780.19;5096785;28;20051;-44
2021/11/30 00:43:57;;;;;;;15.65;8.63;;;;;;;3.24;79.65;91786.16;5098350;28;20092;-44
2021/11/30 00:46:34;;;;;;;17.33;11.65;;;;;;;3.02;80.27;91765.75;5096859;28;20572;-41
2021/11/30 00:49:02;;;;;;;17.90;11.23;;;;;;;3.14;80.56;91779.78;5097849;28;20031;-41
2021/11/30 00:51:28;;;;;;;20.02;11.98;;;;;;;3.10;80.60;91763.06;5099567;28;20047;-43
2021/11/30 00:53:54;;;;;;;14.15;9.48;;;;;;;2.94;81.74;91773.19;5099781;28;20031;-46
2021/11/30 00:56:20;;;;;;;16.73;9.48;;;;;;;2.85;81.82;91738.25;5098417;28;20537;-47
2021/11/30 00:58:47;;;;;;;13.80;7.47;;;;;;;2.66;82.21;91765.81;5097202;28;20047;-44
2021/11/30 01:01:13;;;;;;;11.75;6.45;;;;;;;2.52;83.28;91772.63;5098110;28;20030;-44
2021/11/30 01:03:40;;;;;;;10.45;5.97;;;;;;;2.77;81.87;91762.75;5097297;28;20463;-45
2021/11/30 01:06:06;;;;;;;6.55;5.18;;;;;;;2.77;82.64;91754.56;5097708;28;20054;-47
2021/11/30 01:08:32;;;;;;;13.45;8.95;;;;;;;2.79;83.66;91756.78;5102581;28;20538;-43
2021/11/30 01:10:57;;;;;;;10.60;6.93;;;;;;;2.93;83.63;91747.19;5100264;28;20040;-44
2021/11/30 01:13:23;;;;;;;9.45;7.18;;;;;;;3.06;82.17;91749.75;5099249;28;20080;-46
2021/11/30 01:15:49;;;;;;;11.18;6.30;;;;;;;2.97;81.24;91720.28;5101187;27;20632;-44
2021/11/30 01:18:14;;;;;;;9.20;5.32;;;;;;;2.80;82.62;91737.16;5100237;27;20102;-46
2021/11/30 01:20:40;;;;;;;12.50;8.20;;;;;;;2.88;82.93;91743.34;5103220;28;20092;-41
2021/11/30 01:23:06;;;;;;;14.38;10.57;;;;;;;2.85;82.87;91732.81;5101932;28;20048;-42
2021/11/30 01:25:34;;;;;;;10.23;6.93;;;;;;;2.74;83.98;91725.69;5104681;28;20034;-43
2021/11/30 01:27:59;;;;;;;10.70;6.03;;;;;;;2.78;82.81;91728.78;5103117;28;20647;-42
2021/11/30 01:30:25;;;;;;;7.18;5.47;;;;;;;2.91;83.43;91722.47;5100909;28;20102;-45
2021/11/30 01:32:50;;;;;;;10.98;7.15;;;;;;;3.01;84.01;91723.41;5101096;28;20032;-41
2021/11/30 01:35:17;;;;;;;28.85;19.48;;;;;;;3.15;83.98;91721.97;5100869;27;20020;-41
2021/11/30 01:37:44;;;;;;;22.13;9.95;;;;;;;3.22;84.73;91718.53;5101476;28;20116;-44
2021/11/30 01:40:13;;;;;;;15.15;11.00;;;;;;;3.20;84.47;91721.09;5102580;28;20036;-42
2021/11/30 01:42:46;;;;;;;11.30;7.95;;;;;;;3.23;84.72;91722.00;5100403;28;20031;-41
2021/11/30 01:45:30;;;;;;;5.45;4.60;;;;;;;3.24;85.44;91713.28;5101404;28;20120;-40
2021/11/30 01:50:29;;;;;;;1.63;1.52;;;;;;;3.33;83.75;91714.75;5099612;28;20036;-44
2021/11/30 01:52:55;;;;;;;1.90;1.42;;;;;;;3.31;83.15;91706.38;5100243;28;20028;-41
2021/11/30 01:55:20;;;;;;;2.15;1.50;;;;;;;3.21;82.86;91698.00;5102906;28;20085;-40
2021/11/30 01:57:47;;;;;;;1.83;1.20;;;;;;;3.11;83.35;91696.34;5099026;28;20580;-40
2021/11/30 02:00:14;;;;;;;1.85;1.52;;;;;;;2.95;83.39;91695.56;5100972;28;20031;-41
2021/11/30 02:02:40;;;;;;;5.13;2.33;;;;;;;2.76;84.10;91693.19;5099938;28;20031;-40
2021/11/30 02:05:06;;;;;;;1.52;1.13;;;;;;;2.67;84.11;91690.97;5103378;28;20034;-42
2021/11/30 02:07:31;;;;;;;0.65;0.65;;;;;;;2.64;84.09;91688.59;5100443;28;20036;-40
2021/11/30 02:09:57;;;;;;;1.90;1.10;;;;;;;2.49;84.29;91685.84;5097184;28;20044;-40
2021/11/30 02:12:23;;;;;;;1.52;1.23;;;;;;;2.46;84.42;91692.34;5098817;28;20106;-39
2021/11/30 02:14:50;;;;;;;1.52;1.38;;;;;;;2.29;84.60;91676.50;5098933;28;20063;-40
2021/11/30 02:17:16;;;;;;;2.13;1.30;;;;;;;2.37;84.90;91688.13;5100218;28;20080;-41
2021/11/30 02:19:52;;;;;;;1.30;1.20;;;;;;;2.38;84.97;91689.59;5098149;28;20458;-41
2021/11/30 02:22:18;;;;;;;2.10;1.60;;;;;;;2.39;84.36;91682.88;5099429;28;20547;-42
2021/11/30 02:24:43;;;;;;;0.77;0.77;;;;;;;2.37;84.65;91668.34;5102027;28;20103;-42
2021/11/30 02:27:10;;;;;;;1.00;0.90;;;;;;;2.44;84.79;91679.28;5099985;28;20054;-41
2021/11/30 02:29:35;;;;;;;0.90;0.90;;;;;;;2.41;84.67;91676.88;5098134;28;20043;-46
2021/11/30 02:32:01;;;;;;;2.60;2.30;;;;;;;2.49;84.75;91683.09;5098722;28;20031;-43
2021/11/30 02:34:27;;;;;;;2.80;1.85;;;;;;;2.41;85.22;91685.78;5098672;28;20040;-42
2021/11/30 02:36:54;;;;;;;0.85;0.85;;;;;;;2.34;83.98;91675.59;5102003;28;20028;-41
2021/11/30 02:39:24;;;;;;;2.55;0.85;;;;;;;2.38;83.64;91683.44;5100934;28;20413;-44
2021/11/30 02:41:52;;;;;;;4.47;3.38;;;;;;;2.40;84.28;91681.63;5100787;28;20105;-43
2021/11/30 02:44:19;;;;;;;0.93;0.90;;;;;;;2.35;82.48;91687.22;5098166;28;20165;-43
2021/11/30 02:46:54;;;;;;;1.00;1.00;;;;;;;2.36;82.14;91683.94;5098942;28;20520;-42
2021/11/30 02:49:26;;;;;;;0.65;0.60;;;;;;;2.33;82.55;91685.03;5097501;28;20031;-43
2021/11/30 02:52:01;;;;;;;0.70;0.70;;;;;;;2.36;82.79;91681.22;5099729;28;20028;-45
2021/11/30 02:54:27;;;;;;;0.60;0.60;;;;;;;2.28;82.16;91689.38;5101703;28;20024;-44
2021/11/30 02:56:57;;;;;;;1.88;0.30;;;;;;;2.09;82.24;91691.66;5101124;28;20020;-40
2021/11/30 02:59:25;;;;;;;0.40;0.40;;;;;;;2.09;82.44;91691.66;5100134;28;20020;-43
2021/11/30 03:02:15;;;;;;;0.60;0.50;;;;;;;2.04;82.53;91702.66;5101041;28;20040;-43
2021/11/30 03:04:43;;;;;;;0.32;0.32;;;;;;;2.00;83.42;91699.56;5101600;28;20036;-43
2021/11/30 03:07:13;;;;;;;0.50;0.50;;;;;;;1.91;83.20;91697.34;5102534;28;20028;-45
2021/11/30 03:09:40;;;;;;;15.27;7.05;;;;;;;1.85;84.01;91694.03;5097803;28;20059;-45
2021/11/30 03:12:06;;;;;;;1.70;1.13;;;;;;;1.84;83.70;91706.19;5100476;28;20024;-46
2021/11/30 03:14:32;;;;;;;1.40;1.00;;;;;;;1.80;84.24;91703.81;5098947;28;20034;-42
2021/11/30 03:16:57;;;;;;;2.55;1.25;;;;;;;1.76;84.05;91703.41;5099921;28;20036;-43
2021/11/30 03:19:25;;;;;;;2.25;1.50;;;;;;;1.79;83.99;91712.50;5098967;28;20031;-42
2021/11/30 03:21:51;;;;;;;0.70;0.65;;;;;;;1.63;84.09;91721.81;5097688;28;20424;-42
2021/11/30 03:24:17;;;;;;;1.45;1.30;;;;;;;1.65;83.95;91724.72;5096683;28;20027;-43
2021/11/30 03:26:43;;;;;;;2.72;2.40;;;;;;;1.59;84.67;91718.72;5097239;28;20019;-41
2021/11/30 03:29:08;;;;;;;2.63;1.98;;;;;;;1.45;84.23;91713.34;5097277;28;20028;-42
2021/11/30 03:34:14;;;;;;;0.45;0.45;;;;;;;1.46;85.32;91733.84;5098686;28;20027;-44
2021/11/30 03:36:41;;;;;;;1.45;1.00;;;;;;;1.44;84.88;91730.94;5101043;28;20020;-46
2021/11/30 03:39:09;;;;;;;1.17;0.63;;;;;;;1.46;85.60;91733.13;5099769;28;20413;-46
2021/11/30 03:41:35;;;;;;;1.10;1.00;;;;;;;1.45;85.67;91735.09;5101300;28;20092;-43
2021/11/30 03:44:02;;;;;;;1.23;1.00;;;;;;;1.44;84.45;91747.25;5100866;28;20027;-44
2021/11/30 03:46:30;;;;;;;2.58;1.33;;;;;;;1.46;83.44;91739.28;5099836;28;20027;-42
2021/11/30 03:48:55;;;;;;;1.30;0.93;;;;;;;1.51;83.68;91751.28;5098070;28;20034;-46
2021/11/30 03:51:21;;;;;;;4.80;2.58;;;;;;;1.60;83.58;91759.00;5098752;28;20020;-41
2021/11/30 03:53:46;;;;;;;2.78;1.55;;;;;;;1.51;83.15;91765.63;5100824;28;20057;-43
2021/11/30 03:56:12;;;;;;;7.03;4.25;;;;;;;1.41;83.39;91772.78;5099069;28;20098;-42
2021/11/30 03:58:38;;;;;;;2.13;1.30;;;;;;;1.43;83.33;91783.84;5098636;28;20015;-41
2021/11/30 04:01:03;;;;;;;2.13;1.40;;;;;;;1.36;83.22;91773.66;5097700;28;20049;-43
2021/11/30 04:03:33;;;;;;;4.70;2.88;;;;;;;1.25;83.95;91779.34;5097396;28;20489;-44
2021/11/30 04:05:59;;;;;;;0.88;0.80;;;;;;;1.36;84.90;91798.13;5098013;28;20062;-42
2021/11/30 04:08:25;;;;;;;6.07;4.22;;;;;;;1.26;85.59;91788.22;5096863;28;20110;-42
2021/11/30 04:10:50;;;;;;;13.38;5.50;;;;;;;1.40;85.13;91812.13;5096218;28;20048;-43
2021/11/30 04:13:16;;;;;;;3.50;1.92;;;;;;;1.23;84.68;91787.31;5097608;28;20062;-42
2021/11/30 04:15:41;;;;;;;4.40;2.85;;;;;;;1.32;85.58;91822.16;5099002;28;20092;-44
2021/11/30 04:18:07;;;;;;;13.15;7.95;;;;;;;1.41;85.12;91813.56;5096929;28;20024;-42
2021/11/30 04:20:33;;;;;;;6.10;3.72;;;;;;;1.41;84.69;91823.69;5096926;28;20111;-43
2021/11/30 04:22:58;;;;;;;3.67;2.72;;;;;;;1.29;84.84;91839.56;5097311;28;20501;-44
2021/11/30 04:25:24;;;;;;;3.33;1.92;;;;;;;1.28;84.05;91840.06;5096560;28;20172;-42
2021/11/30 04:27:50;;;;;;;2.17;1.80;;;;;;;1.24;84.26;91843.13;5096706;28;20030;-42
2021/11/30 04:30:15;;;;;;;4.68;3.13;;;;;;;1.25;84.67;91852.75;5098250;28;20104;-44
2021/11/30 04:32:41;;;;;;;2.58;1.80;;;;;;;1.21;84.10;91862.47;5097783;28;20165;-44
2021/11/30 04:35:08;;;;;;;17.83;11.25;;;;;;;1.22;84.69;91861.94;5099592;28;20424;-41
2021/11/30 04:37:34;;;;;;;11.55;6.72;;;;;;;1.07;84.84;91871.91;5094234;28;20016;-45
2021/11/30 04:39:59;;;;;;;8.30;4.93;;;;;;;0.89;85.48;91854.47;5097213;28;20027;-42
2021/11/30 04:42:28;;;;;;;17.63;9.13;;;;;;;1.13;86.00;91881.41;5096536;28;20034;-43
2021/11/30 04:47:58;;;;;;;11.73;7.15;;;;;;;1.09;84.40;91893.84;5088682;28;20526;-44
2021/11/30 04:50:32;;;;;;;2.20;1.88;;;;;;;1.00;83.81;91895.03;5088660;28;20020;-43
2021/11/30 04:53:00;;;;;;;2.80;2.42;;;;;;;0.91;84.85;91903.59;5095104;28;20032;-46
2021/11/30 04:55:29;;;;;;;2.25;2.00;;;;;;;1.01;84.32;91901.94;5103733;28;20030;-43
2021/11/30 04:57:58;;;;;;;4.78;1.60;;;;;;;1.05;85.02;91913.22;5101229;28;20028;-45
2021/11/30 05:00:25;;;;;;;1.27;1.05;;;;;;;0.99;84.46;91920.00;5099325;28;20446;-45
2021/11/30 05:02:50;;;;;;;1.75;1.63;;;;;;;1.13;84.33;91924.16;5101076;28;20028;-45
2021/11/30 05:05:16;;;;;;;2.38;2.17;;;;;;;1.12;83.75;91934.31;5098905;28;20020;-45
2021/11/30 05:07:42;;;;;;;1.08;0.98;;;;;;;1.13;84.38;91935.75;5103131;28;20492;-44
2021/11/30 05:10:09;;;;;;;1.75;1.20;;;;;;;0.99;84.70;91923.47;5097496;28;20048;-45
2021/11/30 05:12:35;;;;;;;2.83;1.95;;;;;;;1.02;84.09;91927.84;5102932;28;20508;-49
2021/11/30 05:15:01;;;;;;;2.05;1.75;;;;;;;1.06;85.09;91941.81;5100499;28;20042;-48
2021/11/30 05:17:27;;;;;;;2.00;1.45;;;;;;;1.20;84.49;91945.28;5101022;28;20046;-43
2021/11/30 05:19:52;;;;;;;1.35;1.25;;;;;;;1.13;84.85;91946.63;5102830;28;20118;-48
2021/11/30 05:22:18;;;;;;;2.22;2.03;;;;;;;1.09;84.55;91951.66;5101061;27;20739;-43
2021/11/30 05:24:44;;;;;;;3.15;2.50;;;;;;;1.20;84.18;91953.44;5102059;28;20031;-45
2021/11/30 05:27:09;;;;;;;1.17;1.00;;;;;;;1.16;84.47;91956.47;5102424;28;20023;-46
2021/11/30 05:29:35;;;;;;;8.98;5.07;;;;;;;1.20;84.63;91956.16;5101837;28;20030;-46
2021/11/30 05:32:00;;;;;;;3.28;1.50;;;;;;;1.26;84.90;91954.03;5103760;28;20408;-45
2021/11/30 05:34:26;;;;;;;0.73;0.73;;;;;;;1.26;84.78;91954.03;5101281;28;20046;-44
2021/11/30 05:36:52;;;;;;;1.33;1.08;;;;;;;1.35;84.42;91957.06;5099216;28;20493;-44
2021/11/30 05:39:17;;;;;;;0.90;0.90;;;;;;;1.36;83.79;91957.81;5101303;28;20077;-43
2021/11/30 05:41:43;;;;;;;13.50;1.60;;;;;;;1.39;82.84;91959.47;5099285;28;20027;-42
2021/11/30 05:44:09;;;;;;;0.60;0.60;;;;;;;1.34;83.75;91960.31;5100368;28;20019;-42
2021/11/30 05:46:36;;;;;;;1.83;1.45;;;;;;;1.31;83.87;91961.34;5100069;28;20024;-44
2021/11/30 05:49:03;;;;;;;5.38;3.33;;;;;;;1.29;83.73;91969.31;5100126;28;20046;-41
2021/11/30 05:51:29;;;;;;;8.90;7.85;;;;;;;1.32;83.04;91974.41;5101199;28;20009;-43
2021/11/30 05:53:55;;;;;;;10.85;8.02;;;;;;;1.30;83.21;91974.22;5099200;28;20028;-43
2021/11/30 05:56:20;;;;;;;27.92;13.13;;;;;;;1.22;82.82;91987.00;5100849;28;20456;-40
2021/11/30 05:58:46;;;;;;;10.38;6.70;;;;;;;1.28;83.05;92001.19;5100826;28;20028;-43
2021/11/30 06:01:23;;;;;;;17.10;10.63;;;;;;;1.26;82.79;92001.00;5098141;28;20038;-41
2021/11/30 06:06:16;;;;;;;19.20;10.27;;;;;;;1.15;83.05;92022.94;5099232;28;20489;-48
2021/11/30 06:08:42;;;;;;;20.50;12.10;;;;;;;1.17;83.09;92022.44;5101192;28;20028;-44
2021/11/30 06:11:07;;;;;;;16.45;7.78;;;;;;;1.35;83.39;92033.19;5097798;27;20047;-46
2021/11/30 06:13:33;;;;;;;20.35;11.25;;;;;;;1.43;82.77;92041.44;5099485;28;20484;-45
2021/11/30 06:15:58;;;;;;;11.50;8.43;;;;;;;1.35;82.15;92037.91;5098460;28;20092;-44
2021/11/30 06:18:24;;;;;;;5.25;4.00;;;;;;;1.41;81.86;92049.41;5098140;28;20081;-43
2021/11/30 06:20:50;;;;;;;11.10;8.05;;;;;;;1.36;83.34;92055.69;5098041;28;20882;-46
2021/11/30 06:23:16;;;;;;;10.43;6.35;;;;;;;1.31;83.64;92061.97;5096213;28;20028;-48
2021/11/30 06:25:41;;;;;;;23.15;14.73;;;;;;;1.22;83.25;92071.25;5097025;28;20099;-44
2021/11/30 06:28:07;;;;;;;71.22;37.25;;;;;;;1.17;83.57;92074.09;5099517;28;20075;-44
2021/11/30 06:30:32;;;;;;;12.93;9.63;;;;;;;1.33;83.14;92079.22;5096261;28;20023;-47
2021/11/30 06:32:59;;;;;;;9.90;6.30;;;;;;;1.30;83.07;92088.41;5097756;28;20132;-45
2021/11/30 06:35:24;;;;;;;15.88;9.25;;;;;;;1.40;82.89;92105.78;5097189;28;20030;-45
2021/11/30 06:37:50;;;;;;;6.72;4.25;;;;;;;1.41;82.28;92107.25;5096231;28;20712;-47
2021/11/30 06:40:16;;;;;;;7.15;4.70;;;;;;;1.38;82.23;92107.56;5096206;28;20102;-45
2021/11/30 06:42:42;;;;;;;5.80;4.75;;;;;;;1.40;82.61;92122.09;5097754;28;20027;-44
2021/11/30 06:45:08;;;;;;;6.72;4.63;;;;;;;1.36;82.57;92126.38;5098786;28;20536;-44
2021/11/30 06:47:34;;;;;;;7.82;5.28;;;;;;;1.36;82.51;92123.66;5097532;28;20504;-46
2021/11/30 06:50:00;;;;;;;21.63;14.35;;;;;;;1.27;82.28;92124.06;5099662;28;20020;-45
2021/11/30 06:52:26;;;;;;;27.95;16.75;;;;;;;1.46;82.56;92138.31;5098611;28;20020;-44
2021/11/30 06:54:54;;;;;;;5.30;4.25;;;;;;;1.52;82.02;92153.28;5098794;28;20428;-45
2021/11/30 06:57:21;;;;;;;20.88;11.18;;;;;;;1.56;82.60;92149.53;5097262;28;20028;-46
2021/11/30 06:59:46;;;;;;;5.70;4.63;;;;;;;1.72;81.74;92148.47;5097086;28;20028;-46
2021/11/30 07:02:13;;;;;;;7.63;2.72;;;;;;;1.71;81.64;92152.44;5097129;28;20033;-44
2021/11/30 07:04:51;;;;;;;3.00;2.58;;;;;;;1.60;81.30;92160.81;5096995;28;20030;-43
2021/11/30 07:10:11;;;;;;;10.23;6.00;;;;;;;1.71;81.97;92163.34;5096199;28;20047;-47
2021/11/30 07:15:04;;;;;;;10.50;7.13;;;;;;;1.81;81.65;92178.72;5097552;28;20098;-47
2021/11/30 07:17:31;;;;;;;4.68;3.85;;;;;;;1.78;80.75;92187.19;5098408;28;20023;-44
2021/11/30 07:19:57;;;;;;;3.63;3.03;;;;;;;1.71;80.00;92193.97;5096416;28;21321;-45
2021/11/30 07:22:23;;;;;;;5.07;4.25;;;;;;;1.77;80.68;92202.06;5093231;28;20024;-46
2021/11/30 07:24:48;;;;;;;4.15;3.30;;;;;;;1.80;80.23;92203.75;5095821;28;20037;-45
2021/11/30 07:27:14;;;;;;;6.05;4.78;;;;;;;1.67;80.32;92220.06;5094901;28;20024;-44
2021/11/30 07:29:40;;;;;;;4.03;3.22;;;;;;;1.72;79.48;92211.03;5097326;28;20055;-47
2021/11/30 07:32:05;;;;;;;4.57;3.42;;;;;;;1.54;79.67;92221.47;5095113;28;20024;-45
2021/11/30 07:34:31;;;;;;;5.63;3.72;;;;;;;1.31;79.64;92214.22;5095060;28;20036;-42
2021/11/30 07:36:57;;;;;;;6.28;4.85;;;;;;;1.23;80.65;92221.50;5095626;28;20035;-44
2021/11/30 07:39:23;;;;;;;8.93;6.70;;;;;;;1.03;80.38;92197.59;5097455;28;20458;-42
2021/11/30 07:41:48;;;;;;;7.82;5.07;;;;;;;1.18;80.25;92230.47;5095181;28;20024;-43
2021/11/30 07:44:14;;;;;;;5.60;3.85;;;;;;;0.97;80.44;92241.19;5094878;28;20485;-42
2021/11/30 07:46:40;;;;;;;8.18;5.25;;;;;;;1.09;81.29;92245.19;5096775;28;20051;-43
2021/11/30 07:49:05;;;;;;;7.10;5.03;;;;;;;0.99;81.07;92225.09;5095865;28;20089;-44
2021/11/30 07:51:32;;;;;;;4.03;3.63;;;;;;;1.04;80.76;92251.44;5096686;28;20024;-43
2021/11/30 07:53:58;;;;;;;3.45;3.13;;;;;;;0.83;81.19;92261.38;5093722;28;20027;-43
2021/11/30 07:56:25;;;;;;;4.88;4.03;;;;;;;0.62;81.63;92246.84;5094162;28;20506;-42
2021/11/30 07:58:50;;;;;;;6.38;4.55;;;;;;;0.93;81.71;92265.22;5097552;28;20099;-43
2021/11/30 08:01:16;;;;;;;9.27;6.47;;;;;;;0.89;80.71;92259.31;5097220;28;20507;-41
2021/11/30 08:03:43;;;;;;;5.88;4.47;;;;;;;0.72;81.49;92275.84;5094755;28;20088;-42
2021/11/30 08:06:10;;;;;;;6.75;5.38;;;;;;;0.72;81.03;92286.72;5096159;28;20055;-44
2021/11/30 08:08:36;;;;;;;8.52;6.25;;;;;;;0.75;81.55;92295.81;5095036;28;20123;-43
2021/11/30 08:11:01;;;;;;;7.40;5.50;;;;;;;0.79;81.17;92304.41;5097031;28;20469;-42
2021/11/30 08:13:27;;;;;;;6.07;5.32;;;;;;;0.95;81.35;92308.16;5095533;28;20062;-40
2021/11/30 08:15:53;;;;;;;4.57;4.07;;;;;;;0.74;80.42;92314.09;5094912;28;20516;-45
2021/11/30 08:18:19;;;;;;;6.45;4.35;;;;;;;0.75;80.96;92312.13;5099567;28;20036;-42
2021/11/30 08:20:44;;;;;;;6.03;4.47;;;;;;;0.95;81.33;92321.75;5101399;28;20024;-43
2021/11/30 08:23:12;;;;;;;7.03;5.63;;;;;;;0.86;80.70;92322.84;5101503;28;20492;-41
2021/11/30 08:25:38;;;;;;;7.53;6.22;;;;;;;0.97;81.00;92328.16;5099367;28;20024;-42
2021/11/30 08:28:04;;;;;;;5.97;4.97;;;;;;;0.91;80.46;92321.31;5099875;28;20140;-42
2021/11/30 08:30:30;;;;;;;10.60;5.78;;;;;;;0.95;80.83;92333.34;5100338;28;20530;-43
2021/11/30 08:32:55;;;;;;;7.18;6.10;;;;;;;0.91;80.26;92343.75;5104977;28;20041;-43
2021/11/30 08:35:21;;;;;;;14.10;10.05;;;;;;;0.94;79.85;92340.03;5102401;28;20042;-43
2021/11/30 08:37:47;;;;;;;6.32;5.47;;;;;;;1.10;80.42;92333.66;5103863;28;20496;-46
2021/11/30 08:40:12;;;;;;;6.97;5.45;;;;;;;0.93;79.99;92352.16;5105140;28;20660;-43
2021/11/30 08:42:38;;;;;;;7.10;5.68;;;;;;;1.04;80.40;92346.56;5104274;28;20546;-46
2021/11/30 08:45:06;;;;;;;7.72;5.35;;;;;;;1.08;79.81;92346.28;5103185;28;20041;-46
2021/11/30 08:47:31;;;;;;;10.02;7.30;;;;;;;1.05;78.99;92345.31;5103786;28;20038;-44
2021/11/30 08:49:58;;;;;;;11.82;8.35;;;;;;;1.06;79.56;92349.50;5100555;28;20470;-45
2021/11/30 08:52:27;;;;;;;9.65;7.20;;;;;;;0.96;79.56;92356.56;5101876;28;20412;-44
2021/11/30 08:54:54;;;;;;;11.10;8.80;;;;;;;0.96;79.36;92356.56;5101027;28;20024;-46
2021/11/30 08:57:20;;;;;;;10.15;7.85;;;;;;;0.99;80.04;92360.22;5103869;28;20080;-45
2021/11/30 08:59:46;;;;;;;11.38;8.55;;;;;;;0.97;79.54;92365.44;5103268;28;20059;-45
2021/11/30 09:02:12;;;;;;;15.32;9.70;;;;;;;1.08;80.05;92362.59;5099793;28;20457;-45
2021/11/30 09:04:37;;;;;;;13.55;9.40;;;;;;;0.96;79.57;92355.81;5101007;28;20016;-43
2021/11/30 09:07:04;;;;;;;13.52;10.35;;;;;;;0.96;79.50;92372.13;5099607;28;20040;-46
2021/11/30 09:09:29;;;;;;;12.00;8.45;;;;;;;1.02;79.30;92373.53;5098698;28;20500;-47
2021/11/30 09:11:56;;;;;;;20.35;11.88;;;;;;;1.04;79.46;92383.91;5100098;28;20065;-44
2021/11/30 09:14:22;;;;;;;11.88;9.63;;;;;;;0.97;79.82;92387.94;5100103;28;20567;-43
2021/11/30 09:16:49;;;;;;;14.80;10.73;;;;;;;0.97;79.56;92384.47;5101389;28;20539;-43
2021/11/30 09:19:15;;;;;;;11.18;8.95;;;;;;;0.94;79.61;92391.66;5102861;28;20107;-43
2021/11/30 09:21:41;;;;;;;20.48;8.95;;;;;;;0.74;79.95;92394.84;5102074;28;20042;-42
2021/11/30 09:24:06;;;;;;;12.65;9.50;;;;;;;0.64;80.62;92394.47;5102375;28;20024;-47
2021/11/30 09:26:32;;;;;;;15.68;10.85;;;;;;;0.54;80.70;92403.47;5099496;28;20020;-44
2021/11/30 09:28:57;;;;;;;27.00;10.90;;;;;;;0.58;80.97;92391.09;5101843;28;20031;-39
2021/11/30 09:31:23;;;;;;;14.05;9.82;;;;;;;0.66;81.35;92412.97;5101224;28;20112;-43
2021/11/30 09:33:49;;;;;;;14.52;10.13;;;;;;;0.59;81.50;92410.81;5099413;28;20111;-44
2021/11/30 09:36:16;;;;;;;13.48;9.48;;;;;;;0.59;80.94;92427.13;5100490;28;20023;-42
2021/11/30 09:38:42;;;;;;;15.73;9.85;;;;;;;0.57;80.95;92424.16;5101039;28;20542;-43
2021/11/30 09:41:08;;;;;;;13.80;10.00;;;;;;;0.25;81.07;92413.13;5100534;28;20385;-43
2021/11/30 09:43:37;;;;;;;13.48;9.30;;;;;;;0.32;82.23;92442.44;5101396;28;20039;-46
2021/11/30 09:46:03;;;;;;;17.05;10.32;;;;;;;0.26;81.70;92427.44;5101311;28;20027;-48
2021/11/30 09:48:30;;;;;;;15.35;10.80;;;;;;;0.37;81.13;92427.34;5099509;28;20172;-44
2021/11/30 09:50:56;;;;;;;15.90;11.23;;;;;;;0.46;81.50;92441.31;5100040;28;20453;-42
2021/11/30 09:53:23;;;;;;;14.20;10.32;;;;;;;0.54;80.87;92446.94;5099815;28;20024;-53
2021/11/30 09:55:49;;;;;;;18.08;10.85;;;;;;;0.46;80.95;92448.72;5100741;28;20027;-49
2021/11/30 09:58:17;;;;;;;11.50;8.85;;;;;;;0.36;80.58;92439.44;5099598;28;20039;-47
2021/11/30 10:00:43;;;;;;;17.75;11.80;;;;;;;0.25;80.85;92455.81;5100168;28;20077;-47
2021/11/30 10:03:09;;;;;;;19.33;12.38;;;;;;;0.27;82.18;92450.63;5100451;28;20027;-52
2021/11/30 10:05:36;;;;;;;19.73;14.02;;;;;;;0.27;81.80;92450.63;5099777;28;20023;-52
2021/11/30 10:08:02;;;;;;;15.55;9.93;;;;;;;0.13;80.96;92457.88;5101023;28;20031;-56
2021/11/30 10:10:30;;;;;;;17.95;11.82;;;;;;;0.15;81.48;92454.69;5100143;28;20117;-52
2021/11/30 10:12:59;;;;;;;14.63;10.65;;;;;;;0.16;81.64;92462.31;5099876;28;20544;-53
2021/11/30 10:15:26;;;;;;;15.82;10.48;;;;;;;0.31;80.69;92459.22;5097839;28;20110;-45
2021/11/30 10:17:51;;;;;;;13.50;9.48;;;;;;;0.05;81.11;92423.66;5099871;28;20757;-53
2021/11/30 10:20:17;;;;;;;21.25;10.55;;;;;;;-0.01;80.81;92437.28;5100085;28;20031;-47
2021/11/30 10:22:56;;;;;;;23.10;11.20;;;;;;;0.04;80.80;92460.19;5098196;28;20066;-60
2021/11/30 10:25:24;;;;;;;16.73;11.07;;;;;;;-0.04;nan;92473.56;5101127;28;20111;-50
2021/11/30 10:27:53;;;;;;;54.13;12.73;;;;;;;-0.04;81.11;92474.31;5102108;28;20038;-57
2021/11/30 10:30:22;;;;;;;16.85;11.00;;;;;;;0.07;80.39;92468.06;5099368;28;20019;-47
2021/11/30 10:32:50;;;;;;;12.20;9.02;;;;;;;0.00;79.90;92458.47;5099572;28;20032;-54
2021/11/30 10:35:17;;;;;;;13.27;8.97;;;;;;;0.06;80.14;92466.59;5100878;28;20111;-54
2021/11/30 10:37:45;;;;;;;11.65;8.20;;;;;;;0.15;80.49;92474.44;5100992;28;20020;-48
2021/11/30 10:40:14;;;;;;;13.88;9.88;;;;;;;0.12;80.24;92464.56;5099970;28;20573;-55
2021/11/30 10:42:47;;;;;;;14.93;9.48;;;;;;;0.10;79.90;92469.03;5098037;28;20020;-54
2021/11/30 10:45:31;;;;;;;15.18;9.43;;;;;;;-0.04;79.76;92449.13;5099224;28;20031;-45
2021/11/30 10:48:06;;;;;;;13.90;9.07;;;;;;;0.26;79.49;92495.31;5102461;28;20030;-52
2021/11/30 10:50:40;;;;;;;15.02;9.80;;;;;;;0.17;78.59;92484.75;5101089;28;20027;-59
2021/11/30 10:53:18;;;;;;;14.80;9.10;;;;;;;0.19;79.11;92487.72;5100698;28;20027;-53
2021/11/30 10:55:49;;;;;;;17.03;10.23;;;;;;;0.21;79.37;92488.69;5098497;28;20024;-43
2021/11/30 10:58:17;;;;;;;14.48;9.55;;;;;;;0.32;79.34;92501.44;5098384;28;20035;-43
2021/11/30 11:00:43;;;;;;;15.38;10.00;;;;;;;0.41;78.23;92488.25;5100689;28;20555;-48
2021/11/30 11:03:15;;;;;;;11.93;7.95;;;;;;;0.33;77.85;92481.91;5100707;28;20080;-49
2021/11/30 11:05:43;;;;;;;12.57;8.38;;;;;;;0.30;77.82;92482.94;5100247;28;20763;-48
2021/11/30 11:08:14;;;;;;;13.13;9.07;;;;;;;0.27;78.27;92486.66;5101502;28;20020;-49
2021/11/30 11:10:48;;;;;;;12.27;8.90;;;;;;;0.40;78.04;92489.50;5099722;28;20103;-48
2021/11/30 11:13:29;;;;;;;13.75;9.48;;;;;;;0.33;78.25;92481.16;5099762;28;20055;-52
2021/11/30 11:15:56;;;;;;;13.45;9.63;;;;;;;0.63;77.40;92479.91;5103346;28;20062;-48
2021/11/30 11:18:29;;;;;;;12.45;8.38;;;;;;;0.68;76.78;92500.88;5102563;28;20024;-49
2021/11/30 11:21:18;;;;;;;12.45;8.93;;;;;;;0.89;75.44;92495.00;5100426;28;20070;-45
2021/11/30 11:24:09;;;;;;;11.38;7.95;;;;;;;1.09;74.18;92506.13;5100101;28;20034;-45
2021/11/30 11:26:47;;;;;;;16.13;8.02;;;;;;;1.17;73.93;92495.44;5099603;28;20062;-49
2021/11/30 11:29:15;;;;;;;11.85;7.78;;;;;;;1.39;72.84;92503.31;5099484;28;20440;-47
2021/11/30 11:31:44;;;;;;;12.18;9.40;;;;;;;1.48;72.60;92503.69;5096168;28;20058;-47
2021/11/30 11:34:12;;;;;;;9.85;6.80;;;;;;;1.41;72.70;92504.28;5098138;28;20428;-48
2021/11/30 11:36:40;;;;;;;11.48;7.45;;;;;;;1.42;72.32;92505.03;5097065;28;20048;-47
2021/11/30 11:39:06;;;;;;;13.15;8.65;;;;;;;1.49;72.75;92502.44;5098358;28;20076;-46
2021/11/30 11:41:32;;;;;;;12.68;8.63;;;;;;;1.62;71.15;92493.66;5098140;28;20488;-47
2021/11/30 11:43:58;;;;;;;11.02;7.25;;;;;;;2.01;70.43;92498.56;5098262;28;20032;-45
2021/11/30 11:46:25;;;;;;;13.02;7.63;;;;;;;2.40;69.13;92508.88;5101393;28;20092;-52
2021/11/30 11:48:57;;;;;;;9.55;7.10;;;;;;;2.90;67.85;92506.78;5097719;28;20035;-45
2021/11/30 11:51:23;;;;;;;11.48;7.57;;;;;;;3.28;65.81;92506.63;5100137;28;20058;-47
2021/11/30 11:53:54;;;;;;;11.25;7.38;;;;;;;3.28;64.82;92503.88;5097861;28;20023;-40